sensor_id;sensor_type;location;lat;lon;timestamp;pressure;altitude;pressure_sealevel;temperature
8227;BMP180;4154;48.810;9.012;2023-07-16T00:00:02;97008.00;;;20.00
8227;BMP180;4154;48.810;9.012;2023-07-16T00:02:30;97013.00;;;20.00
8227;BMP180;4154;48.810;9.012;2023-07-16T00:04:56;97020.00;;;19.90
8227;BMP180;4154;48.810;9.012;2023-07-16T00:07:22;97031.00;;;19.90
8227;BMP180;4154;48.810;9.012;2023-07-16T00:09:48;97032.00;;;20.00
8227;BMP180;4154;48.810;9.012;2023-07-16T00:12:14;97024.00;;;19.90
8227;BMP180;4154;48.810;9.012;2023-07-16T00:14:40;97024.00;;;20.00
8227;BMP180;4154;48.810;9.012;2023-07-16T00:17:06;97025.00;;;20.00
8227;BMP180;4154;48.810;9.012;2023-07-16T00:19:32;97036.00;;;19.90
8227;BMP180;4154;48.810;9.012;2023-07-16T00:21:58;97009.00;;;19.90
8227;BMP180;4154;48.810;9.012;2023-07-16T00:24:24;97001.00;;;19.90
8227;BMP180;4154;48.810;9.012;2023-07-16T00:26:50;97015.00;;;19.90
8227;BMP180;4154;48.810;9.012;2023-07-16T00:29:16;97016.00;;;19.90
8227;BMP180;4154;48.810;9.012;2023-07-16T00:31:42;97029.00;;;19.80
8227;BMP180;4154;48.810;9.012;2023-07-16T00:34:08;97027.00;;;19.80
8227;BMP180;4154;48.810;9.012;2023-07-16T00:36:34;97031.00;;;19.80
8227;BMP180;4154;48.810;9.012;2023-07-16T00:39:00;97032.00;;;19.80
8227;BMP180;4154;48.810;9.012;2023-07-16T00:41:26;97024.00;;;19.80
8227;BMP180;4154;48.810;9.012;2023-07-16T00:43:52;97026.00;;;19.70
8227;BMP180;4154;48.810;9.012;2023-07-16T00:46:20;97032.00;;;19.70
8227;BMP180;4154;48.810;9.012;2023-07-16T00:48:46;97017.00;;;19.70
8227;BMP180;4154;48.810;9.012;2023-07-16T00:51:13;97021.00;;;19.70
8227;BMP180;4154;48.810;9.012;2023-07-16T00:53:41;97024.00;;;19.70
8227;BMP180;4154;48.810;9.012;2023-07-16T00:56:09;97009.00;;;19.70
8227;BMP180;4154;48.810;9.012;2023-07-16T00:58:35;97031.00;;;19.70
8227;BMP180;4154;48.810;9.012;2023-07-16T01:01:01;97036.00;;;19.60
8227;BMP180;4154;48.810;9.012;2023-07-16T01:03:27;97042.00;;;19.60
8227;BMP180;4154;48.810;9.012;2023-07-16T01:06:16;97065.00;;;19.60
8227;BMP180;4154;48.810;9.012;2023-07-16T01:08:57;97066.00;;;19.60
8227;BMP180;4154;48.810;9.012;2023-07-16T01:11:27;97075.00;;;19.60
8227;BMP180;4154;48.810;9.012;2023-07-16T01:13:53;97087.00;;;19.60
8227;BMP180;4154;48.810;9.012;2023-07-16T01:16:25;97071.00;;;19.60
8227;BMP180;4154;48.810;9.012;2023-07-16T01:18:51;97074.00;;;19.50
8227;BMP180;4154;48.810;9.012;2023-07-16T01:21:20;97077.00;;;19.50
8227;BMP180;4154;48.810;9.012;2023-07-16T01:29:49;97068.00;;;19.30
8227;BMP180;4154;48.810;9.012;2023-07-16T01:32:17;97063.00;;;19.30
8227;BMP180;4154;48.810;9.012;2023-07-16T01:34:44;97081.00;;;19.20
8227;BMP180;4154;48.810;9.012;2023-07-16T01:37:11;97088.00;;;19.20
8227;BMP180;4154;48.810;9.012;2023-07-16T01:39:37;97100.00;;;19.20
8227;BMP180;4154;48.810;9.012;2023-07-16T01:42:03;97098.00;;;19.10
8227;BMP180;4154;48.810;9.012;2023-07-16T01:44:30;97090.00;;;19.00
8227;BMP180;4154;48.810;9.012;2023-07-16T01:47:17;97078.00;;;19.00
8227;BMP180;4154;48.810;9.012;2023-07-16T01:49:51;97061.00;;;18.90
8227;BMP180;4154;48.810;9.012;2023-07-16T01:52:17;97056.00;;;18.90
8227;BMP180;4154;48.810;9.012;2023-07-16T01:54:43;97072.00;;;18.80
8227;BMP180;4154;48.810;9.012;2023-07-16T01:57:09;97085.00;;;18.80
8227;BMP180;4154;48.810;9.012;2023-07-16T01:59:35;97090.00;;;18.80
8227;BMP180;4154;48.810;9.012;2023-07-16T02:02:01;97094.00;;;18.70
8227;BMP180;4154;48.810;9.012;2023-07-16T02:04:27;97103.00;;;18.70
8227;BMP180;4154;48.810;9.012;2023-07-16T02:06:53;97091.00;;;18.70
8227;BMP180;4154;48.810;9.012;2023-07-16T02:09:20;97080.00;;;18.70
8227;BMP180;4154;48.810;9.012;2023-07-16T02:11:46;97093.00;;;18.70
8227;BMP180;4154;48.810;9.012;2023-07-16T02:14:12;97086.00;;;18.60
8227;BMP180;4154;48.810;9.012;2023-07-16T02:16:39;97070.00;;;18.60
8227;BMP180;4154;48.810;9.012;2023-07-16T02:19:05;97076.00;;;18.60
8227;BMP180;4154;48.810;9.012;2023-07-16T02:21:32;97089.00;;;18.50
8227;BMP180;4154;48.810;9.012;2023-07-16T02:23:58;97092.00;;;18.50
8227;BMP180;4154;48.810;9.012;2023-07-16T02:26:24;97093.00;;;18.50
8227;BMP180;4154;48.810;9.012;2023-07-16T02:28:51;97109.00;;;18.50
8227;BMP180;4154;48.810;9.012;2023-07-16T02:31:17;97118.00;;;18.40
8227;BMP180;4154;48.810;9.012;2023-07-16T02:33:43;97118.00;;;18.40
8227;BMP180;4154;48.810;9.012;2023-07-16T02:36:09;97109.00;;;18.40
8227;BMP180;4154;48.810;9.012;2023-07-16T02:38:35;97109.00;;;18.30
8227;BMP180;4154;48.810;9.012;2023-07-16T02:41:01;97104.00;;;18.30
8227;BMP180;4154;48.810;9.012;2023-07-16T02:43:27;97086.00;;;18.30
8227;BMP180;4154;48.810;9.012;2023-07-16T02:45:53;97091.00;;;18.30
8227;BMP180;4154;48.810;9.012;2023-07-16T02:48:19;97092.00;;;18.30
8227;BMP180;4154;48.810;9.012;2023-07-16T02:50:45;97093.00;;;18.30
8227;BMP180;4154;48.810;9.012;2023-07-16T02:53:11;97083.00;;;18.30
8227;BMP180;4154;48.810;9.012;2023-07-16T02:55:37;97077.00;;;18.30
8227;BMP180;4154;48.810;9.012;2023-07-16T02:58:03;97094.00;;;18.30
8227;BMP180;4154;48.810;9.012;2023-07-16T03:00:34;97102.00;;;18.30
8227;BMP180;4154;48.810;9.012;2023-07-16T03:03:00;97094.00;;;18.30
8227;BMP180;4154;48.810;9.012;2023-07-16T03:05:27;97092.00;;;18.30
8227;BMP180;4154;48.810;9.012;2023-07-16T03:07:53;97103.00;;;18.20
8227;BMP180;4154;48.810;9.012;2023-07-16T03:10:21;97118.00;;;18.30
8227;BMP180;4154;48.810;9.012;2023-07-16T03:12:47;97112.00;;;18.20
8227;BMP180;4154;48.810;9.012;2023-07-16T03:15:13;97113.00;;;18.20
8227;BMP180;4154;48.810;9.012;2023-07-16T03:17:39;97127.00;;;18.20
8227;BMP180;4154;48.810;9.012;2023-07-16T03:20:06;97121.00;;;18.20
8227;BMP180;4154;48.810;9.012;2023-07-16T03:22:33;97120.00;;;18.20
8227;BMP180;4154;48.810;9.012;2023-07-16T03:24:59;97113.00;;;18.10
8227;BMP180;4154;48.810;9.012;2023-07-16T03:27:25;97111.00;;;18.20
8227;BMP180;4154;48.810;9.012;2023-07-16T03:29:51;97103.00;;;18.10
8227;BMP180;4154;48.810;9.012;2023-07-16T03:32:17;97115.00;;;18.10
8227;BMP180;4154;48.810;9.012;2023-07-16T03:34:43;97139.00;;;18.10
8227;BMP180;4154;48.810;9.012;2023-07-16T03:37:09;97149.00;;;18.10
8227;BMP180;4154;48.810;9.012;2023-07-16T03:39:35;97139.00;;;18.10
8227;BMP180;4154;48.810;9.012;2023-07-16T03:42:01;97142.00;;;18.10
8227;BMP180;4154;48.810;9.012;2023-07-16T03:44:28;97143.00;;;18.10
8227;BMP180;4154;48.810;9.012;2023-07-16T03:46:54;97166.00;;;18.10
8227;BMP180;4154;48.810;9.012;2023-07-16T03:49:20;97167.00;;;18.00
8227;BMP180;4154;48.810;9.012;2023-07-16T03:51:46;97178.00;;;18.10
8227;BMP180;4154;48.810;9.012;2023-07-16T03:54:12;97186.00;;;18.00
8227;BMP180;4154;48.810;9.012;2023-07-16T03:56:38;97192.00;;;18.00
8227;BMP180;4154;48.810;9.012;2023-07-16T03:59:04;97203.00;;;18.00
8227;BMP180;4154;48.810;9.012;2023-07-16T04:01:30;97226.00;;;18.00
8227;BMP180;4154;48.810;9.012;2023-07-16T04:03:56;97215.00;;;18.00
8227;BMP180;4154;48.810;9.012;2023-07-16T04:06:22;97217.00;;;17.90
8227;BMP180;4154;48.810;9.012;2023-07-16T04:08:48;97230.00;;;17.90
8227;BMP180;4154;48.810;9.012;2023-07-16T04:11:14;97212.00;;;17.90
8227;BMP180;4154;48.810;9.012;2023-07-16T04:13:40;97215.00;;;17.90
8227;BMP180;4154;48.810;9.012;2023-07-16T04:16:06;97205.00;;;17.90
8227;BMP180;4154;48.810;9.012;2023-07-16T04:18:32;97202.00;;;17.90
8227;BMP180;4154;48.810;9.012;2023-07-16T04:20:58;97204.00;;;17.90
8227;BMP180;4154;48.810;9.012;2023-07-16T04:23:24;97196.00;;;17.80
8227;BMP180;4154;48.810;9.012;2023-07-16T04:25:55;97183.00;;;17.80
8227;BMP180;4154;48.810;9.012;2023-07-16T04:28:21;97182.00;;;17.80
8227;BMP180;4154;48.810;9.012;2023-07-16T04:30:48;97204.00;;;17.80
8227;BMP180;4154;48.810;9.012;2023-07-16T04:33:14;97223.00;;;17.80
8227;BMP180;4154;48.810;9.012;2023-07-16T04:35:40;97220.00;;;17.80
8227;BMP180;4154;48.810;9.012;2023-07-16T04:38:06;97224.00;;;17.80
8227;BMP180;4154;48.810;9.012;2023-07-16T04:40:33;97237.00;;;17.80
8227;BMP180;4154;48.810;9.012;2023-07-16T04:42:59;97248.00;;;17.70
8227;BMP180;4154;48.810;9.012;2023-07-16T04:45:25;97244.00;;;17.70
8227;BMP180;4154;48.810;9.012;2023-07-16T04:47:51;97252.00;;;17.70
8227;BMP180;4154;48.810;9.012;2023-07-16T04:50:17;97259.00;;;17.70
8227;BMP180;4154;48.810;9.012;2023-07-16T04:52:43;97255.00;;;17.70
8227;BMP180;4154;48.810;9.012;2023-07-16T04:55:09;97264.00;;;17.70
8227;BMP180;4154;48.810;9.012;2023-07-16T04:57:37;97264.00;;;17.70
8227;BMP180;4154;48.810;9.012;2023-07-16T05:00:03;97247.00;;;17.70
8227;BMP180;4154;48.810;9.012;2023-07-16T05:02:32;97256.00;;;17.80
8227;BMP180;4154;48.810;9.012;2023-07-16T05:04:58;97267.00;;;17.80
8227;BMP180;4154;48.810;9.012;2023-07-16T05:07:24;97257.00;;;17.70
8227;BMP180;4154;48.810;9.012;2023-07-16T05:09:50;97258.00;;;17.70
8227;BMP180;4154;48.810;9.012;2023-07-16T05:12:16;97263.00;;;17.70
8227;BMP180;4154;48.810;9.012;2023-07-16T05:14:47;97265.00;;;17.70
8227;BMP180;4154;48.810;9.012;2023-07-16T05:17:14;97263.00;;;17.80
8227;BMP180;4154;48.810;9.012;2023-07-16T05:19:40;97253.00;;;17.80
8227;BMP180;4154;48.810;9.012;2023-07-16T05:22:06;97261.00;;;17.80
8227;BMP180;4154;48.810;9.012;2023-07-16T05:24:32;97266.00;;;17.80
8227;BMP180;4154;48.810;9.012;2023-07-16T05:26:59;97273.00;;;17.80
8227;BMP180;4154;48.810;9.012;2023-07-16T05:29:25;97258.00;;;17.90
8227;BMP180;4154;48.810;9.012;2023-07-16T05:31:51;97272.00;;;17.90
8227;BMP180;4154;48.810;9.012;2023-07-16T05:34:17;97271.00;;;17.90
8227;BMP180;4154;48.810;9.012;2023-07-16T05:36:43;97268.00;;;17.90
8227;BMP180;4154;48.810;9.012;2023-07-16T05:39:12;97263.00;;;17.90
8227;BMP180;4154;48.810;9.012;2023-07-16T05:41:42;97269.00;;;18.00
8227;BMP180;4154;48.810;9.012;2023-07-16T05:44:08;97280.00;;;18.00
8227;BMP180;4154;48.810;9.012;2023-07-16T05:46:34;97290.00;;;18.00
8227;BMP180;4154;48.810;9.012;2023-07-16T05:49:00;97294.00;;;18.10
8227;BMP180;4154;48.810;9.012;2023-07-16T05:51:26;97284.00;;;18.10
8227;BMP180;4154;48.810;9.012;2023-07-16T05:53:52;97296.00;;;18.10
8227;BMP180;4154;48.810;9.012;2023-07-16T05:56:18;97298.00;;;18.10
8227;BMP180;4154;48.810;9.012;2023-07-16T05:58:44;97287.00;;;18.20
8227;BMP180;4154;48.810;9.012;2023-07-16T06:01:10;97280.00;;;18.20
8227;BMP180;4154;48.810;9.012;2023-07-16T06:03:36;97273.00;;;18.20
8227;BMP180;4154;48.810;9.012;2023-07-16T06:06:02;97278.00;;;18.10
8227;BMP180;4154;48.810;9.012;2023-07-16T06:08:28;97269.00;;;18.20
8227;BMP180;4154;48.810;9.012;2023-07-16T06:10:55;97296.00;;;18.20
8227;BMP180;4154;48.810;9.012;2023-07-16T06:13:21;97293.00;;;18.20
8227;BMP180;4154;48.810;9.012;2023-07-16T06:15:47;97296.00;;;18.20
8227;BMP180;4154;48.810;9.012;2023-07-16T06:18:13;97294.00;;;18.20
8227;BMP180;4154;48.810;9.012;2023-07-16T06:20:44;97303.00;;;18.20
8227;BMP180;4154;48.810;9.012;2023-07-16T06:23:10;97289.00;;;18.20
8227;BMP180;4154;48.810;9.012;2023-07-16T06:25:37;97289.00;;;18.20
8227;BMP180;4154;48.810;9.012;2023-07-16T06:28:03;97290.00;;;18.20
8227;BMP180;4154;48.810;9.012;2023-07-16T06:30:29;97285.00;;;18.20
8227;BMP180;4154;48.810;9.012;2023-07-16T06:32:58;97289.00;;;18.20
8227;BMP180;4154;48.810;9.012;2023-07-16T06:35:24;97291.00;;;18.20
8227;BMP180;4154;48.810;9.012;2023-07-16T06:37:50;97297.00;;;18.20
8227;BMP180;4154;48.810;9.012;2023-07-16T06:40:16;97288.00;;;18.30
8227;BMP180;4154;48.810;9.012;2023-07-16T06:42:42;97291.00;;;18.30
8227;BMP180;4154;48.810;9.012;2023-07-16T06:45:08;97299.00;;;18.30
8227;BMP180;4154;48.810;9.012;2023-07-16T06:47:34;97287.00;;;18.40
8227;BMP180;4154;48.810;9.012;2023-07-16T06:50:00;97288.00;;;18.40
8227;BMP180;4154;48.810;9.012;2023-07-16T06:52:26;97298.00;;;18.40
8227;BMP180;4154;48.810;9.012;2023-07-16T06:54:54;97297.00;;;18.40
8227;BMP180;4154;48.810;9.012;2023-07-16T06:57:21;97303.00;;;18.50
8227;BMP180;4154;48.810;9.012;2023-07-16T06:59:47;97302.00;;;18.50
8227;BMP180;4154;48.810;9.012;2023-07-16T07:02:13;97302.00;;;18.50
8227;BMP180;4154;48.810;9.012;2023-07-16T07:04:39;97292.00;;;18.60
8227;BMP180;4154;48.810;9.012;2023-07-16T07:07:06;97307.00;;;18.50
8227;BMP180;4154;48.810;9.012;2023-07-16T07:09:32;97293.00;;;18.50
8227;BMP180;4154;48.810;9.012;2023-07-16T07:11:58;97284.00;;;18.60
8227;BMP180;4154;48.810;9.012;2023-07-16T07:14:24;97289.00;;;18.60
8227;BMP180;4154;48.810;9.012;2023-07-16T07:16:50;97279.00;;;18.60
8227;BMP180;4154;48.810;9.012;2023-07-16T07:19:16;97294.00;;;18.70
8227;BMP180;4154;48.810;9.012;2023-07-16T07:21:42;97287.00;;;18.70
8227;BMP180;4154;48.810;9.012;2023-07-16T07:24:09;97276.00;;;18.80
8227;BMP180;4154;48.810;9.012;2023-07-16T07:26:35;97293.00;;;18.80
8227;BMP180;4154;48.810;9.012;2023-07-16T07:29:01;97289.00;;;18.80
8227;BMP180;4154;48.810;9.012;2023-07-16T07:31:27;97305.00;;;18.80
8227;BMP180;4154;48.810;9.012;2023-07-16T07:33:53;97303.00;;;18.80
8227;BMP180;4154;48.810;9.012;2023-07-16T07:36:19;97312.00;;;18.80
8227;BMP180;4154;48.810;9.012;2023-07-16T07:38:46;97308.00;;;18.90
8227;BMP180;4154;48.810;9.012;2023-07-16T07:41:12;97305.00;;;18.90
8227;BMP180;4154;48.810;9.012;2023-07-16T07:43:38;97308.00;;;19.00
8227;BMP180;4154;48.810;9.012;2023-07-16T07:46:05;97300.00;;;19.00
8227;BMP180;4154;48.810;9.012;2023-07-16T07:48:34;97298.00;;;19.00
8227;BMP180;4154;48.810;9.012;2023-07-16T07:51:00;97306.00;;;19.00
8227;BMP180;4154;48.810;9.012;2023-07-16T07:53:26;97305.00;;;19.00
8227;BMP180;4154;48.810;9.012;2023-07-16T07:55:53;97305.00;;;19.10
8227;BMP180;4154;48.810;9.012;2023-07-16T07:58:19;97308.00;;;19.10
8227;BMP180;4154;48.810;9.012;2023-07-16T08:00:45;97310.00;;;19.10
8227;BMP180;4154;48.810;9.012;2023-07-16T08:03:14;97315.00;;;19.10
8227;BMP180;4154;48.810;9.012;2023-07-16T08:05:40;97318.00;;;19.10
8227;BMP180;4154;48.810;9.012;2023-07-16T08:08:06;97312.00;;;19.20
8227;BMP180;4154;48.810;9.012;2023-07-16T08:10:32;97314.00;;;19.30
8227;BMP180;4154;48.810;9.012;2023-07-16T08:12:58;97306.00;;;19.40
8227;BMP180;4154;48.810;9.012;2023-07-16T08:15:24;97306.00;;;19.50
8227;BMP180;4154;48.810;9.012;2023-07-16T08:17:50;97306.00;;;19.60
8227;BMP180;4154;48.810;9.012;2023-07-16T08:20:16;97313.00;;;19.60
8227;BMP180;4154;48.810;9.012;2023-07-16T08:22:43;97304.00;;;19.60
8227;BMP180;4154;48.810;9.012;2023-07-16T08:25:08;97311.00;;;19.50
8227;BMP180;4154;48.810;9.012;2023-07-16T08:27:35;97292.00;;;19.50
8227;BMP180;4154;48.810;9.012;2023-07-16T08:30:01;97277.00;;;19.50
8227;BMP180;4154;48.810;9.012;2023-07-16T08:32:27;97277.00;;;19.50
8227;BMP180;4154;48.810;9.012;2023-07-16T08:34:53;97280.00;;;19.50
8227;BMP180;4154;48.810;9.012;2023-07-16T08:37:19;97289.00;;;19.50
8227;BMP180;4154;48.810;9.012;2023-07-16T08:39:45;97299.00;;;19.50
8227;BMP180;4154;48.810;9.012;2023-07-16T08:42:11;97297.00;;;19.50
8227;BMP180;4154;48.810;9.012;2023-07-16T08:44:41;97297.00;;;19.60
8227;BMP180;4154;48.810;9.012;2023-07-16T08:47:07;97301.00;;;19.60
8227;BMP180;4154;48.810;9.012;2023-07-16T08:49:34;97296.00;;;19.50
8227;BMP180;4154;48.810;9.012;2023-07-16T08:52:02;97294.00;;;19.50
8227;BMP180;4154;48.810;9.012;2023-07-16T08:54:28;97305.00;;;19.50
8227;BMP180;4154;48.810;9.012;2023-07-16T08:56:54;97315.00;;;19.50
8227;BMP180;4154;48.810;9.012;2023-07-16T08:59:21;97316.00;;;19.50
8227;BMP180;4154;48.810;9.012;2023-07-16T09:01:48;97313.00;;;19.60
8227;BMP180;4154;48.810;9.012;2023-07-16T09:04:15;97320.00;;;19.50
8227;BMP180;4154;48.810;9.012;2023-07-16T09:06:42;97315.00;;;19.60
8227;BMP180;4154;48.810;9.012;2023-07-16T09:09:11;97318.00;;;19.70
8227;BMP180;4154;48.810;9.012;2023-07-16T09:11:48;97308.00;;;19.70
8227;BMP180;4154;48.810;9.012;2023-07-16T09:14:20;97304.00;;;19.80
8227;BMP180;4154;48.810;9.012;2023-07-16T09:16:51;97316.00;;;19.90
8227;BMP180;4154;48.810;9.012;2023-07-16T09:19:17;97314.00;;;20.10
8227;BMP180;4154;48.810;9.012;2023-07-16T09:21:51;97305.00;;;20.20
8227;BMP180;4154;48.810;9.012;2023-07-16T09:24:19;97314.00;;;20.20
8227;BMP180;4154;48.810;9.012;2023-07-16T09:26:49;97306.00;;;20.30
8227;BMP180;4154;48.810;9.012;2023-07-16T09:29:16;97306.00;;;20.30
8227;BMP180;4154;48.810;9.012;2023-07-16T09:32:01;97310.00;;;20.30
8227;BMP180;4154;48.810;9.012;2023-07-16T09:34:31;97313.00;;;20.30
8227;BMP180;4154;48.810;9.012;2023-07-16T09:36:58;97314.00;;;20.30
8227;BMP180;4154;48.810;9.012;2023-07-16T09:39:26;97307.00;;;20.40
8227;BMP180;4154;48.810;9.012;2023-07-16T09:41:52;97304.00;;;20.50
8227;BMP180;4154;48.810;9.012;2023-07-16T09:44:19;97312.00;;;20.50
8227;BMP180;4154;48.810;9.012;2023-07-16T09:46:46;97315.00;;;20.50
8227;BMP180;4154;48.810;9.012;2023-07-16T09:49:14;97312.00;;;20.50
8227;BMP180;4154;48.810;9.012;2023-07-16T09:51:40;97302.00;;;20.60
8227;BMP180;4154;48.810;9.012;2023-07-16T09:54:07;97303.00;;;20.60
8227;BMP180;4154;48.810;9.012;2023-07-16T09:56:48;97303.00;;;20.50
8227;BMP180;4154;48.810;9.012;2023-07-16T09:59:20;97316.00;;;20.40
8227;BMP180;4154;48.810;9.012;2023-07-16T10:01:46;97305.00;;;20.30
8227;BMP180;4154;48.810;9.012;2023-07-16T10:04:18;97306.00;;;20.30
8227;BMP180;4154;48.810;9.012;2023-07-16T10:06:53;97311.00;;;20.20
8227;BMP180;4154;48.810;9.012;2023-07-16T10:09:39;97309.00;;;20.30
8227;BMP180;4154;48.810;9.012;2023-07-16T10:12:17;97312.00;;;20.60
8227;BMP180;4154;48.810;9.012;2023-07-16T10:14:49;97306.00;;;20.60
8227;BMP180;4154;48.810;9.012;2023-07-16T10:17:21;97311.00;;;20.70
8227;BMP180;4154;48.810;9.012;2023-07-16T10:20:02;97307.00;;;20.90
8227;BMP180;4154;48.810;9.012;2023-07-16T10:22:40;97307.00;;;21.00
8227;BMP180;4154;48.810;9.012;2023-07-16T10:27:47;97311.00;;;21.20
8227;BMP180;4154;48.810;9.012;2023-07-16T10:30:14;97299.00;;;21.30
8227;BMP180;4154;48.810;9.012;2023-07-16T10:32:40;97294.00;;;21.40
8227;BMP180;4154;48.810;9.012;2023-07-16T10:35:08;97301.00;;;21.50
8227;BMP180;4154;48.810;9.012;2023-07-16T10:37:35;97304.00;;;21.50
8227;BMP180;4154;48.810;9.012;2023-07-16T10:40:03;97297.00;;;21.50
8227;BMP180;4154;48.810;9.012;2023-07-16T10:42:30;97294.00;;;21.50
8227;BMP180;4154;48.810;9.012;2023-07-16T10:45:01;97296.00;;;21.50
8227;BMP180;4154;48.810;9.012;2023-07-16T10:47:36;97297.00;;;21.60
8227;BMP180;4154;48.810;9.012;2023-07-16T10:50:08;97294.00;;;21.50
8227;BMP180;4154;48.810;9.012;2023-07-16T10:52:36;97288.00;;;21.60
8227;BMP180;4154;48.810;9.012;2023-07-16T10:55:02;97286.00;;;21.70
8227;BMP180;4154;48.810;9.012;2023-07-16T10:57:29;97290.00;;;21.60
8227;BMP180;4154;48.810;9.012;2023-07-16T10:59:57;97295.00;;;21.50
8227;BMP180;4154;48.810;9.012;2023-07-16T11:02:24;97292.00;;;21.50
8227;BMP180;4154;48.810;9.012;2023-07-16T11:04:51;97291.00;;;21.40
8227;BMP180;4154;48.810;9.012;2023-07-16T11:07:21;97289.00;;;21.30
8227;BMP180;4154;48.810;9.012;2023-07-16T11:09:53;97293.00;;;21.30
8227;BMP180;4154;48.810;9.012;2023-07-16T11:12:23;97283.00;;;21.30
8227;BMP180;4154;48.810;9.012;2023-07-16T11:14:52;97289.00;;;21.40
8227;BMP180;4154;48.810;9.012;2023-07-16T11:17:20;97280.00;;;21.40
8227;BMP180;4154;48.810;9.012;2023-07-16T11:19:48;97291.00;;;21.40
8227;BMP180;4154;48.810;9.012;2023-07-16T11:22:16;97300.00;;;21.40
8227;BMP180;4154;48.810;9.012;2023-07-16T11:24:47;97280.00;;;21.40
8227;BMP180;4154;48.810;9.012;2023-07-16T11:27:32;97291.00;;;21.40
8227;BMP180;4154;48.810;9.012;2023-07-16T11:29:59;97295.00;;;21.40
8227;BMP180;4154;48.810;9.012;2023-07-16T11:32:45;97304.00;;;21.50
8227;BMP180;4154;48.810;9.012;2023-07-16T11:35:16;97301.00;;;21.50
8227;BMP180;4154;48.810;9.012;2023-07-16T11:37:44;97297.00;;;21.50
8227;BMP180;4154;48.810;9.012;2023-07-16T11:40:15;97288.00;;;21.50
8227;BMP180;4154;48.810;9.012;2023-07-16T11:42:41;97285.00;;;21.60
8227;BMP180;4154;48.810;9.012;2023-07-16T11:45:21;97290.00;;;21.70
8227;BMP180;4154;48.810;9.012;2023-07-16T11:47:49;97285.00;;;21.80
8227;BMP180;4154;48.810;9.012;2023-07-16T11:50:15;97273.00;;;21.80
8227;BMP180;4154;48.810;9.012;2023-07-16T11:52:42;97281.00;;;21.90
8227;BMP180;4154;48.810;9.012;2023-07-16T11:55:08;97275.00;;;21.90
8227;BMP180;4154;48.810;9.012;2023-07-16T11:57:34;97272.00;;;22.10
8227;BMP180;4154;48.810;9.012;2023-07-16T12:00:01;97270.00;;;22.20
8227;BMP180;4154;48.810;9.012;2023-07-16T12:02:28;97264.00;;;22.30
8227;BMP180;4154;48.810;9.012;2023-07-16T12:04:55;97262.00;;;22.40
8227;BMP180;4154;48.810;9.012;2023-07-16T12:09:58;97261.00;;;22.40
8227;BMP180;4154;48.810;9.012;2023-07-16T12:12:24;97256.00;;;22.40
8227;BMP180;4154;48.810;9.012;2023-07-16T12:14:51;97257.00;;;22.40
8227;BMP180;4154;48.810;9.012;2023-07-16T12:17:17;97245.00;;;22.30
8227;BMP180;4154;48.810;9.012;2023-07-16T12:19:43;97235.00;;;22.40
8227;BMP180;4154;48.810;9.012;2023-07-16T12:22:09;97234.00;;;22.40
8227;BMP180;4154;48.810;9.012;2023-07-16T12:24:36;97235.00;;;22.50
8227;BMP180;4154;48.810;9.012;2023-07-16T12:27:02;97235.00;;;22.50
8227;BMP180;4154;48.810;9.012;2023-07-16T12:29:28;97244.00;;;22.50
8227;BMP180;4154;48.810;9.012;2023-07-16T12:31:54;97232.00;;;22.50
8227;BMP180;4154;48.810;9.012;2023-07-16T12:34:20;97236.00;;;22.50
8227;BMP180;4154;48.810;9.012;2023-07-16T12:36:46;97237.00;;;22.60
8227;BMP180;4154;48.810;9.012;2023-07-16T12:39:12;97233.00;;;22.60
8227;BMP180;4154;48.810;9.012;2023-07-16T12:41:38;97239.00;;;22.60
8227;BMP180;4154;48.810;9.012;2023-07-16T12:44:04;97233.00;;;22.60
8227;BMP180;4154;48.810;9.012;2023-07-16T12:46:30;97236.00;;;22.50
8227;BMP180;4154;48.810;9.012;2023-07-16T12:48:56;97245.00;;;22.60
8227;BMP180;4154;48.810;9.012;2023-07-16T12:51:22;97237.00;;;22.70
8227;BMP180;4154;48.810;9.012;2023-07-16T12:53:48;97242.00;;;22.90
8227;BMP180;4154;48.810;9.012;2023-07-16T12:56:14;97233.00;;;23.00
8227;BMP180;4154;48.810;9.012;2023-07-16T12:58:40;97238.00;;;23.20
8227;BMP180;4154;48.810;9.012;2023-07-16T13:01:06;97240.00;;;23.20
8227;BMP180;4154;48.810;9.012;2023-07-16T13:03:33;97236.00;;;23.20
8227;BMP180;4154;48.810;9.012;2023-07-16T13:05:59;97239.00;;;23.30
8227;BMP180;4154;48.810;9.012;2023-07-16T13:08:25;97237.00;;;23.40
8227;BMP180;4154;48.810;9.012;2023-07-16T13:10:51;97241.00;;;23.40
8227;BMP180;4154;48.810;9.012;2023-07-16T13:13:17;97231.00;;;23.40
8227;BMP180;4154;48.810;9.012;2023-07-16T13:15:43;97231.00;;;23.30
8227;BMP180;4154;48.810;9.012;2023-07-16T13:18:10;97223.00;;;23.30
8227;BMP180;4154;48.810;9.012;2023-07-16T13:20:37;97216.00;;;23.40
8227;BMP180;4154;48.810;9.012;2023-07-16T13:23:04;97214.00;;;23.50
8227;BMP180;4154;48.810;9.012;2023-07-16T13:25:36;97216.00;;;23.60
8227;BMP180;4154;48.810;9.012;2023-07-16T13:28:05;97213.00;;;23.70
8227;BMP180;4154;48.810;9.012;2023-07-16T13:30:31;97218.00;;;23.60
8227;BMP180;4154;48.810;9.012;2023-07-16T13:32:57;97212.00;;;23.60
8227;BMP180;4154;48.810;9.012;2023-07-16T13:35:23;97210.00;;;23.50
8227;BMP180;4154;48.810;9.012;2023-07-16T13:37:50;97210.00;;;23.40
8227;BMP180;4154;48.810;9.012;2023-07-16T13:40:16;97209.00;;;23.30
8227;BMP180;4154;48.810;9.012;2023-07-16T13:42:46;97214.00;;;23.30
8227;BMP180;4154;48.810;9.012;2023-07-16T13:45:12;97206.00;;;23.20
8227;BMP180;4154;48.810;9.012;2023-07-16T13:47:38;97205.00;;;23.40
8227;BMP180;4154;48.810;9.012;2023-07-16T13:50:04;97211.00;;;23.40
8227;BMP180;4154;48.810;9.012;2023-07-16T13:52:31;97217.00;;;23.40
8227;BMP180;4154;48.810;9.012;2023-07-16T13:54:57;97214.00;;;23.50
8227;BMP180;4154;48.810;9.012;2023-07-16T13:57:23;97221.00;;;23.80
8227;BMP180;4154;48.810;9.012;2023-07-16T13:59:49;97203.00;;;24.10
8227;BMP180;4154;48.810;9.012;2023-07-16T14:02:15;97216.00;;;24.10
8227;BMP180;4154;48.810;9.012;2023-07-16T14:04:41;97227.00;;;24.10
8227;BMP180;4154;48.810;9.012;2023-07-16T14:07:06;97220.00;;;24.00
8227;BMP180;4154;48.810;9.012;2023-07-16T14:09:32;97217.00;;;23.90
8227;BMP180;4154;48.810;9.012;2023-07-16T14:11:58;97216.00;;;23.80
8227;BMP180;4154;48.810;9.012;2023-07-16T14:14:24;97221.00;;;23.70
8227;BMP180;4154;48.810;9.012;2023-07-16T14:16:50;97212.00;;;23.60
8227;BMP180;4154;48.810;9.012;2023-07-16T14:19:17;97202.00;;;23.50
8227;BMP180;4154;48.810;9.012;2023-07-16T14:21:43;97211.00;;;23.60
8227;BMP180;4154;48.810;9.012;2023-07-16T14:24:09;97217.00;;;23.50
8227;BMP180;4154;48.810;9.012;2023-07-16T14:26:35;97213.00;;;23.40
8227;BMP180;4154;48.810;9.012;2023-07-16T14:29:01;97213.00;;;23.40
8227;BMP180;4154;48.810;9.012;2023-07-16T14:31:27;97223.00;;;23.40
8227;BMP180;4154;48.810;9.012;2023-07-16T14:33:53;97229.00;;;23.30
8227;BMP180;4154;48.810;9.012;2023-07-16T14:36:19;97228.00;;;23.20
8227;BMP180;4154;48.810;9.012;2023-07-16T14:38:47;97223.00;;;23.10
8227;BMP180;4154;48.810;9.012;2023-07-16T14:41:13;97225.00;;;23.10
8227;BMP180;4154;48.810;9.012;2023-07-16T14:43:39;97223.00;;;23.10